Lemmon Valley, Nevada
Current Conditions -  °F | °C
As of 7:15 AM on Saturday 25 Oct 2014 (Local Time) from KRTS Reporting Station
Clear Clear  
Wind Chill: 55°   Ceiling: Unl
Heat Index: 55°   Visibility: 10mi
Dew Point: 25°   Wind: 23mph
Humidity: 31%   Direction: 220°SW
Pressure: 29.93"   Gusts: 35mph
Location:  39.7378°N, 119.889°W
Report Text: KRTS 251415Z AUTO 22020G30KT 10SM CLR 13/M04 A2993 RMK AO2
Loading
Personal Weather Stations






























Interactive Weather Map
Tropical Storm Tracking
New forecast layout! Learn more

10-Day Weather Forecast

Advertisements
Track Severe Weather on mobile